Taraghin, Libya
Current Conditions -  °F | °C
As of 7:00 AM on Thursday 27 Nov 2014 (Local Time) from DAUZ Reporting Station
Clear Clear  
Wind Chill: 43°   Ceiling: Unl
Heat Index: 48°   Visibility: 6mi
Dew Point: 27°   Wind: 12mph
Humidity: 43%   Direction: 50°NE
Pressure: 29.88"   Gusts: NA
Location:  25.98°N, 14.43°E
Report Text: DAUZ 270400Z 05010KT CAVOK 09/M03 Q1012
Loading
Personal Weather Stations






























Interactive Weather Map New forecast layout! Learn more

10-Day Weather Forecast

Advertisements
Track Severe Weather on mobile